Time;durP1;ratioP1;P1;durP2;ratioP2;P2;SDS_P1;SDS_P2;PMS_P1;PMS_P2;Temp;Humidity;BMP_temperature;BMP_pressure;BME280_temperature;BME280_humidity;BME280_pressure;Samples;Min_cycle;Max_cycle;Signal;HPM_P1;HPM_P2
2023/07/14 00:01:50;;;;;;;13.77;9.68;;;;;;;18.61;64.95;100038.88;5060658;28;20056;-81
2023/07/14 00:04:25;;;;;;;12.57;9.52;;;;;;;18.56;65.57;100041.13;5053868;28;20139;-79
2023/07/14 00:06:51;;;;;;;10.57;9.13;;;;;;;18.57;65.03;100037.47;5053385;28;20087;-80
2023/07/14 00:09:25;;;;;;;11.05;8.10;;;;;;;18.54;65.44;100037.72;5071621;28;20055;-79
2023/07/14 00:11:53;;;;;;;12.05;9.18;;;;;;;18.53;64.99;100041.38;5047174;28;20056;-79
2023/07/14 00:14:20;;;;;;;11.80;8.45;;;;;;;18.54;65.11;100037.72;5051481;28;20049;-80
2023/07/14 00:16:46;;;;;;;12.90;9.25;;;;;;;18.54;65.09;100036.88;5033673;28;20044;-80
2023/07/14 00:19:15;;;;;;;11.35;9.10;;;;;;;18.53;65.24;100032.50;5051204;28;20049;-79
2023/07/14 00:21:44;;;;;;;11.32;8.30;;;;;;;18.52;65.37;100038.84;5053366;28;20056;-80
2023/07/14 00:24:13;;;;;;;11.13;8.27;;;;;;;18.53;65.54;100029.84;5071419;28;20040;-80
2023/07/14 00:26:41;;;;;;;13.85;8.82;;;;;;;18.52;65.39;100034.34;5071051;28;20053;-81
2023/07/14 00:29:31;;;;;;;15.80;9.27;;;;;;;18.48;65.62;100031.13;5053456;28;20040;-80
2023/07/14 00:31:58;;;;;;;10.00;8.30;;;;;;;18.53;65.22;100027.19;5050986;28;20098;-80
2023/07/14 00:34:25;;;;;;;14.38;9.63;;;;;;;18.52;65.07;100014.84;5033658;28;20048;-80
2023/07/14 00:36:52;;;;;;;11.85;8.38;;;;;;;18.50;65.26;100017.63;5050848;28;20053;-79
2023/07/14 00:39:18;;;;;;;14.68;9.55;;;;;;;18.50;65.30;100022.97;5033374;28;20106;-79
2023/07/14 00:41:45;;;;;;;17.85;9.77;;;;;;;18.47;65.30;100021.41;5051129;28;20052;-80
2023/07/14 00:44:15;;;;;;;11.18;9.32;;;;;;;18.45;65.74;100014.53;5048963;28;20122;-80
2023/07/14 00:46:44;;;;;;;11.73;9.45;;;;;;;18.44;65.50;100015.50;5037522;28;20040;-79
2023/07/14 00:49:32;;;;;;;12.50;9.43;;;;;;;18.38;65.89;100013.38;5071001;28;20044;-81
2023/07/14 00:52:05;;;;;;;9.93;8.85;;;;;;;18.39;65.66;100013.22;5070784;28;20047;-80
2023/07/14 00:54:32;;;;;;;12.57;9.38;;;;;;;18.39;65.52;100015.91;5053218;28;20068;-80
2023/07/14 00:57:00;;;;;;;13.00;10.00;;;;;;;18.39;65.55;100007.06;5050566;28;20045;-80
2023/07/14 00:59:33;;;;;;;11.05;9.73;;;;;;;18.35;66.01;100003.81;5033359;28;20060;-80
2023/07/14 01:02:22;;;;;;;11.63;9.35;;;;;;;18.31;66.00;100000.56;5050728;28;20048;-79
2023/07/14 01:04:54;;;;;;;12.02;9.18;;;;;;;18.35;66.10;99995.81;5049992;28;20063;-80
2023/07/14 01:07:27;;;;;;;13.48;9.05;;;;;;;18.34;65.89;99992.31;5070429;28;20473;-79
2023/07/14 01:09:57;;;;;;;11.23;8.95;;;;;;;18.36;65.74;99992.19;5052246;28;20488;-79
2023/07/14 01:12:25;;;;;;;14.25;9.98;;;;;;;18.36;65.79;99998.34;5070869;28;20052;-80
2023/07/14 01:14:54;;;;;;;11.55;9.45;;;;;;;18.37;66.08;99985.88;5038588;28;20049;-80
2023/07/14 01:17:22;;;;;;;14.50;10.30;;;;;;;18.38;65.52;99984.06;5032908;28;20535;-80
2023/07/14 01:19:53;;;;;;;14.70;9.88;;;;;;;18.37;66.09;99988.53;5032877;28;20056;-81
2023/07/14 01:22:29;;;;;;;9.43;7.97;;;;;;;18.34;66.25;99989.66;5032709;28;20052;-79
2023/07/14 01:25:05;;;;;;;12.63;10.02;;;;;;;18.38;65.63;99986.75;5061977;28;20094;-79
2023/07/14 01:27:32;;;;;;;12.75;10.65;;;;;;;18.36;65.51;99985.03;5062771;28;20052;-79
2023/07/14 01:30:00;;;;;;;15.10;10.93;;;;;;;18.35;65.79;99983.34;5070533;28;20063;-81
2023/07/14 01:32:39;;;;;;;13.10;10.20;;;;;;;18.31;66.10;99973.94;5070479;28;20443;-79
2023/07/14 01:35:07;;;;;;;12.88;10.10;;;;;;;18.34;65.90;99981.66;5041865;28;20098;-80
2023/07/14 01:37:39;;;;;;;14.10;10.68;;;;;;;18.34;65.76;99984.31;5050320;28;20053;-80
2023/07/14 01:40:18;;;;;;;13.02;9.77;;;;;;;18.31;66.29;99981.91;5032843;28;20404;-79
2023/07/14 01:42:51;;;;;;;12.82;10.25;;;;;;;18.33;66.24;99977.31;5050500;28;20049;-80
2023/07/14 01:45:19;;;;;;;;;;;;;;;18.33;65.60;99982.66;5041900;28;20098;-81
2023/07/14 01:47:52;;;;;;;13.75;9.32;;;;;;;18.38;65.60;99978.75;5052507;28;19924;-80
2023/07/14 01:50:30;;;;;;;12.90;10.50;;;;;;;18.35;65.92;99986.00;5070298;28;20059;-80
2023/07/14 01:53:02;;;;;;;11.80;9.40;;;;;;;18.35;65.91;99979.81;5068539;28;20499;-79
2023/07/14 01:55:34;;;;;;;17.55;11.23;;;;;;;18.35;66.13;99990.47;5070049;28;20044;-79
2023/07/14 01:58:10;;;;;;;14.30;10.25;;;;;;;18.33;66.35;99995.13;5070259;28;20055;-80
2023/07/14 02:00:39;;;;;;;13.18;9.95;;;;;;;18.35;65.85;99993.16;5052562;28;20505;-79
2023/07/14 02:03:09;;;;;;;13.95;11.05;;;;;;;18.35;65.98;99995.81;5050943;28;20053;-80
2023/07/14 02:05:38;;;;;;;14.52;10.38;;;;;;;18.35;66.14;100001.16;5041638;28;20049;-80
2023/07/14 02:08:10;;;;;;;16.23;10.43;;;;;;;18.36;65.97;99998.34;5050055;28;20052;-79
2023/07/14 02:10:36;;;;;;;16.25;11.10;;;;;;;18.38;66.14;99994.72;5032720;28;20459;-80
2023/07/14 02:13:05;;;;;;;13.75;11.13;;;;;;;18.38;66.25;99994.72;5034198;28;20049;-80
2023/07/14 02:15:33;;;;;;;15.77;11.63;;;;;;;18.39;65.96;99993.75;5070093;28;20053;-80
2023/07/14 02:18:01;;;;;;;16.58;10.50;;;;;;;18.39;66.33;99997.25;5069958;28;20049;-79
2023/07/14 02:20:36;;;;;;;15.07;11.23;;;;;;;18.39;66.36;99996.41;5052821;28;20460;-80
2023/07/14 02:23:05;;;;;;;14.85;10.38;;;;;;;18.41;66.38;99995.31;5072137;28;20119;-79
2023/07/14 02:25:46;;;;;;;16.02;11.20;;;;;;;18.42;66.70;100006.78;5073139;28;20060;-80
2023/07/14 02:28:13;;;;;;;12.98;10.60;;;;;;;18.46;66.37;99997.56;5073386;28;20135;-80
2023/07/14 02:30:49;;;;;;;19.85;11.70;;;;;;;18.45;66.72;100003.88;5073332;28;20131;-80
2023/07/14 02:33:22;;;;;;;19.13;10.82;;;;;;;18.46;66.66;100001.06;5049868;28;20049;-80
2023/07/14 02:36:13;;;;;;;15.45;11.10;;;;;;;18.45;66.79;100003.88;5053544;28;20045;-80
2023/07/14 02:38:40;;;;;;;14.02;10.63;;;;;;;18.51;66.30;100006.03;5053224;28;20053;-80
2023/07/14 02:41:19;;;;;;;15.32;11.30;;;;;;;18.47;66.59;99997.41;5053337;28;20139;-79
2023/07/14 02:46:26;;;;;;;12.27;10.35;;;;;;;18.53;66.08;99997.84;5050947;28;20056;-80
2023/07/14 02:48:53;;;;;;;13.75;10.73;;;;;;;18.54;66.25;99995.06;5035378;28;20045;-80
2023/07/14 02:51:20;;;;;;;18.75;11.20;;;;;;;18.54;66.37;100008.41;5053320;28;20053;-80
2023/07/14 02:53:46;;;;;;;13.52;9.95;;;;;;;18.55;66.00;100001.25;5049508;28;20054;-80
2023/07/14 02:56:13;;;;;;;16.83;11.38;;;;;;;18.55;65.94;100004.78;5040509;28;20186;-80
2023/07/14 02:58:40;;;;;;;16.42;11.02;;;;;;;18.55;66.28;100006.59;5052274;28;20543;-80
2023/07/14 03:01:06;;;;;;;14.05;10.57;;;;;;;18.55;66.21;100007.44;5033159;28;20100;-80
2023/07/14 03:03:34;;;;;;;17.73;11.07;;;;;;;18.56;66.40;100002.94;5031972;28;20052;-80
2023/07/14 03:06:01;;;;;;;13.55;10.55;;;;;;;18.56;66.29;99998.47;5032742;28;20077;-80
2023/07/14 03:08:28;;;;;;;16.90;10.77;;;;;;;18.55;66.11;99991.44;5032603;28;20050;-80
2023/07/14 03:10:57;;;;;;;20.17;10.35;;;;;;;18.55;66.41;99985.25;5047648;28;20560;-80
2023/07/14 03:13:24;;;;;;;15.40;10.52;;;;;;;18.54;66.25;99979.06;5052622;28;20497;-80
2023/07/14 03:15:50;;;;;;;14.48;10.13;;;;;;;18.55;66.05;99983.44;5052499;28;20055;-81
2023/07/14 03:18:17;;;;;;;14.55;10.52;;;;;;;18.55;66.26;99982.59;5052482;28;20048;-80
2023/07/14 03:20:45;;;;;;;11.52;9.35;;;;;;;18.57;66.45;99988.63;5041433;28;20060;-80
2023/07/14 03:23:11;;;;;;;15.73;10.50;;;;;;;18.57;66.42;99985.94;5032551;28;20053;-80
2023/07/14 03:25:40;;;;;;;16.27;9.88;;;;;;;18.57;66.15;99984.16;5032328;28;20516;-80
2023/07/14 03:28:07;;;;;;;18.63;9.88;;;;;;;18.59;66.17;99984.00;5032438;28;20600;-81
2023/07/14 03:30:39;;;;;;;16.23;10.57;;;;;;;18.58;66.50;99979.66;5044679;28;20052;-80
2023/07/14 03:33:06;;;;;;;14.68;11.05;;;;;;;18.58;66.12;99969.00;5050156;28;20049;-80
2023/07/14 03:35:33;;;;;;;13.88;9.98;;;;;;;18.58;65.99;99963.66;5052267;28;20409;-81
2023/07/14 03:37:59;;;;;;;13.27;8.48;;;;;;;18.58;65.85;99966.34;5034459;28;20044;-80
2023/07/14 03:40:26;;;;;;;13.40;9.20;;;;;;;18.57;65.79;99967.28;5041351;28;20049;-80
2023/07/14 03:42:53;;;;;;;16.25;10.00;;;;;;;18.55;66.06;99964.78;5032265;28;20175;-80
2023/07/14 03:45:20;;;;;;;14.35;9.75;;;;;;;18.54;65.93;99963.06;5030721;28;20053;-80
2023/07/14 03:47:47;;;;;;;13.88;9.98;;;;;;;18.53;66.11;99969.41;5031837;28;20053;-81
2023/07/14 03:50:13;;;;;;;11.07;8.65;;;;;;;18.52;66.03;99959.72;5037554;28;20087;-80
2023/07/14 03:52:41;;;;;;;11.85;8.35;;;;;;;18.50;66.17;99961.66;5052085;28;20045;-80
2023/07/14 03:55:10;;;;;;;18.30;9.70;;;;;;;18.51;66.18;99951.84;5051783;28;20056;-80
2023/07/14 03:57:37;;;;;;;9.73;8.52;;;;;;;18.51;66.18;99955.38;5051860;28;20061;-80
2023/07/14 04:00:18;;;;;;;9.93;8.70;;;;;;;18.52;66.12;99953.53;5047646;28;20541;-80
2023/07/14 04:02:46;;;;;;;15.98;8.95;;;;;;;18.52;66.09;99954.38;5031668;28;20082;-80
2023/07/14 04:05:13;;;;;;;11.85;8.98;;;;;;;18.52;66.30;99949.06;5031509;28;20050;-80
2023/07/14 04:07:42;;;;;;;12.32;9.55;;;;;;;18.52;66.18;99946.38;5031933;28;20046;-80
2023/07/14 04:10:11;;;;;;;11.52;7.90;;;;;;;18.54;66.47;99948.91;5031632;28;20556;-80
2023/07/14 04:12:37;;;;;;;13.25;8.40;;;;;;;18.55;66.28;99955.94;5030071;28;20057;-81
2023/07/14 04:15:04;;;;;;;12.10;8.57;;;;;;;18.56;66.46;99958.47;5030305;28;20092;-80
2023/07/14 04:17:35;;;;;;;10.85;8.18;;;;;;;18.59;66.28;99957.34;5031594;28;20095;-80
2023/07/14 04:20:02;;;;;;;13.23;8.50;;;;;;;18.60;66.22;99953.69;5031622;28;20045;-80
2023/07/14 04:22:29;;;;;;;10.75;8.20;;;;;;;18.62;66.32;99954.44;5046937;28;20497;-80
2023/07/14 04:24:58;;;;;;;13.20;7.93;;;;;;;18.63;66.47;99950.78;5051191;28;20049;-80
2023/07/14 04:27:26;;;;;;;13.15;8.73;;;;;;;18.65;66.49;99955.97;5033332;28;20076;-80
2023/07/14 04:29:53;;;;;;;12.38;8.90;;;;;;;18.66;66.32;99949.66;5051047;28;20087;-80
2023/07/14 04:32:19;;;;;;;10.80;8.38;;;;;;;18.67;66.18;99951.34;5049039;28;20055;-80
2023/07/14 04:34:46;;;;;;;10.10;7.90;;;;;;;18.67;65.92;99949.53;5031182;28;20711;-80
2023/07/14 04:37:13;;;;;;;15.93;8.38;;;;;;;18.68;65.93;99958.34;5030967;28;20440;-80
2023/07/14 04:39:40;;;;;;;9.75;8.27;;;;;;;18.69;66.02;99952.88;5031256;28;20053;-80
2023/07/14 04:42:06;;;;;;;13.20;7.97;;;;;;;18.68;65.93;99953.88;5045734;28;20094;-80
2023/07/14 04:44:33;;;;;;;12.18;7.90;;;;;;;18.68;65.91;99953.03;5049768;28;20045;-80
2023/07/14 04:47:00;;;;;;;12.60;8.52;;;;;;;18.68;65.98;99955.69;5050827;28;20052;-81
2023/07/14 04:49:26;;;;;;;13.98;8.38;;;;;;;18.66;66.08;99949.66;5050891;28;20077;-80
2023/07/14 04:51:53;;;;;;;10.68;7.80;;;;;;;18.66;65.99;99949.66;5040644;28;20045;-80
2023/07/14 04:54:23;;;;;;;10.45;8.13;;;;;;;18.64;66.04;99946.31;5032764;28;20045;-80
2023/07/14 04:56:50;;;;;;;11.45;7.65;;;;;;;18.65;65.85;99953.31;5032316;28;20061;-81
2023/07/14 04:59:18;;;;;;;12.68;7.35;;;;;;;18.65;65.95;99948.81;5030894;28;20045;-80
2023/07/14 05:01:44;;;;;;;12.30;7.28;;;;;;;18.65;66.03;99947.97;5032243;28;20045;-80
2023/07/14 05:04:11;;;;;;;10.90;7.07;;;;;;;18.65;65.73;99946.13;5040837;28;20057;-80
2023/07/14 05:06:38;;;;;;;10.77;7.13;;;;;;;18.67;65.95;99946.84;5050512;28;20048;-80
2023/07/14 05:09:05;;;;;;;10.15;7.13;;;;;;;18.67;65.86;99944.19;5032839;28;20103;-80
2023/07/14 05:11:31;;;;;;;7.82;5.70;;;;;;;18.69;65.86;99946.72;5049388;28;20053;-80
2023/07/14 05:13:58;;;;;;;6.95;5.57;;;;;;;18.71;65.43;99942.94;5031023;28;20049;-80
2023/07/14 05:16:25;;;;;;;9.00;5.90;;;;;;;18.73;65.65;99943.63;5030607;28;20041;-80
2023/07/14 05:18:51;;;;;;;6.47;5.22;;;;;;;18.77;65.58;99948.72;5030647;28;20468;-80
2023/07/14 05:21:18;;;;;;;8.70;5.38;;;;;;;18.80;65.94;99946.59;5030909;28;20052;-80
2023/07/14 05:23:44;;;;;;;8.57;4.95;;;;;;;18.84;65.85;99941.84;5046714;28;20045;-80
2023/07/14 05:26:11;;;;;;;8.18;4.97;;;;;;;18.88;65.71;99948.59;5050600;28;20049;-80
2023/07/14 05:28:38;;;;;;;7.05;5.22;;;;;;;18.93;66.12;99943.69;5050547;28;20045;-80
2023/07/14 05:31:08;;;;;;;8.38;5.15;;;;;;;18.98;65.94;99940.59;5050662;28;20084;-80
2023/07/14 05:33:35;;;;;;;8.73;5.43;;;;;;;19.06;66.23;99935.44;5029281;28;20095;-81
2023/07/14 05:36:02;;;;;;;6.70;5.00;;;;;;;19.14;66.09;99932.94;5030526;28;20061;-80
2023/07/14 05:38:29;;;;;;;8.93;5.32;;;;;;;19.24;65.89;99934.75;5030394;28;20136;-80
2023/07/14 05:40:56;;;;;;;8.10;4.82;;;;;;;19.32;66.05;99931.41;5031004;28;20045;-80
2023/07/14 05:43:27;;;;;;;5.57;4.55;;;;;;;19.37;65.42;99932.66;5032985;28;20064;-80
2023/07/14 05:45:54;;;;;;;10.68;5.30;;;;;;;19.45;65.46;99933.78;5050476;28;20045;-81
2023/07/14 05:48:21;;;;;;;7.60;4.90;;;;;;;19.49;65.01;99924.50;5050286;28;20045;-80
2023/07/14 05:50:48;;;;;;;6.95;5.65;;;;;;;19.52;65.17;99932.25;5050204;28;20632;-81
2023/07/14 05:53:17;;;;;;;9.38;5.75;;;;;;;19.55;64.85;99923.94;5046035;28;20128;-81
2023/07/14 05:55:44;;;;;;;8.43;6.50;;;;;;;19.58;64.93;99928.16;5031587;28;20205;-80
2023/07/14 05:58:11;;;;;;;8.10;6.22;;;;;;;19.61;64.86;99933.22;5034153;28;20072;-80
2023/07/14 06:00:40;;;;;;;10.57;5.90;;;;;;;19.63;65.36;99932.06;5043565;28;20048;-80
2023/07/14 06:03:17;;;;;;;8.20;5.80;;;;;;;19.66;65.36;99931.81;5072869;28;20139;-79
2023/07/14 06:05:46;;;;;;;11.25;6.85;;;;;;;19.74;65.30;99930.25;5054106;28;20060;-78
2023/07/14 06:08:13;;;;;;;8.52;6.30;;;;;;;19.80;65.87;99932.34;5053826;28;20049;-80
2023/07/14 06:10:40;;;;;;;11.68;7.65;;;;;;;19.88;65.53;99943.16;5053889;28;20049;-80
2023/07/14 06:13:06;;;;;;;13.65;7.57;;;;;;;19.95;65.79;99935.41;5053937;28;20059;-80
2023/07/14 06:15:33;;;;;;;8.02;6.47;;;;;;;20.01;65.45;99934.88;5036486;28;20049;-80
2023/07/14 06:18:00;;;;;;;11.18;6.85;;;;;;;20.08;65.47;99934.28;5049220;28;20045;-80
2023/07/14 06:20:26;;;;;;;8.60;6.45;;;;;;;20.14;65.46;99934.53;5033756;28;20045;-80
2023/07/14 06:22:57;;;;;;;11.15;7.78;;;;;;;20.21;64.90;99931.25;5033910;28;20053;-80
2023/07/14 06:25:24;;;;;;;9.15;6.72;;;;;;;20.26;65.00;99935.19;5046145;28;20052;-79
2023/07/14 06:27:50;;;;;;;13.55;6.60;;;;;;;20.32;64.89;99936.44;5053149;28;20060;-80
2023/07/14 06:30:17;;;;;;;8.93;6.90;;;;;;;20.35;64.74;99919.25;5053809;28;20056;-81
2023/07/14 06:32:44;;;;;;;9.18;7.10;;;;;;;20.39;64.49;99928.66;5053535;28;20053;-82
2023/07/14 06:35:12;;;;;;;11.93;7.45;;;;;;;20.43;64.22;99924.72;5044695;28;20045;-83
2023/07/14 06:37:39;;;;;;;11.90;7.15;;;;;;;20.46;64.39;99920.91;5033400;28;20111;-81
2023/07/14 06:40:08;;;;;;;10.40;7.40;;;;;;;20.49;64.34;99920.63;5033653;28;20049;-81
2023/07/14 06:42:35;;;;;;;13.95;7.97;;;;;;;20.53;64.14;99924.69;5033311;28;20045;-81
2023/07/14 06:45:03;;;;;;;10.45;7.25;;;;;;;20.56;64.18;99921.72;5037281;28;20457;-82
2023/07/14 06:47:32;;;;;;;9.55;7.07;;;;;;;20.59;64.17;99920.56;5052982;28;20060;-81
2023/07/14 06:49:59;;;;;;;9.52;7.57;;;;;;;20.62;63.79;99921.09;5053206;28;20553;-81
2023/07/14 06:52:26;;;;;;;12.15;7.28;;;;;;;20.63;63.91;99928.13;5053255;28;20048;-81
2023/07/14 06:54:53;;;;;;;14.57;7.75;;;;;;;20.64;63.73;99916.44;5051997;28;20053;-82
2023/07/14 06:57:19;;;;;;;10.75;6.97;;;;;;;20.67;63.65;99923.34;5032959;28;20056;-81
2023/07/14 06:59:46;;;;;;;9.43;7.20;;;;;;;20.69;63.68;99921.34;5042148;28;20049;-81
2023/07/14 07:02:13;;;;;;;12.38;7.70;;;;;;;20.72;63.53;99929.09;5053202;28;20053;-82
2023/07/14 07:04:40;;;;;;;10.18;7.15;;;;;;;20.75;63.74;99919.91;5052949;28;20053;-80
2023/07/14 07:07:07;;;;;;;10.40;7.32;;;;;;;20.78;63.75;99914.28;5051736;28;20052;-81
2023/07/14 07:09:34;;;;;;;9.60;7.25;;;;;;;20.82;63.12;99915.66;5048459;28;20045;-81
2023/07/14 07:12:01;;;;;;;9.73;7.10;;;;;;;20.83;63.12;99917.31;5032889;28;20050;-80
2023/07/14 07:14:28;;;;;;;9.02;7.03;;;;;;;20.83;62.93;99909.31;5032913;28;20057;-81
2023/07/14 07:16:56;;;;;;;9.93;7.45;;;;;;;20.84;63.10;99916.31;5032667;28;20054;-82
2023/07/14 07:19:22;;;;;;;9.68;7.30;;;;;;;20.86;63.06;99916.19;5031564;28;20055;-81
2023/07/14 07:21:49;;;;;;;10.68;6.68;;;;;;;20.84;63.06;99900.28;5032695;28;20500;-81
2023/07/14 07:24:16;;;;;;;9.05;6.28;;;;;;;20.84;62.93;99908.31;5014980;28;20045;-80
2023/07/14 07:26:43;;;;;;;10.15;6.32;;;;;;;20.84;62.72;99900.28;5032127;28;20115;-81
2023/07/14 07:29:09;;;;;;;8.73;6.80;;;;;;;20.85;62.60;99915.31;5032349;28;20056;-81
2023/07/14 07:31:36;;;;;;;15.82;7.13;;;;;;;20.84;62.68;99913.66;5047799;28;20102;-80
2023/07/14 07:34:03;;;;;;;13.40;7.60;;;;;;;20.85;62.88;99915.31;5034570;28;20456;-81
2023/07/14 07:36:31;;;;;;;8.85;6.47;;;;;;;20.82;63.27;99904.94;5051985;28;20049;-81
2023/07/14 07:38:58;;;;;;;9.88;6.93;;;;;;;20.84;63.13;99897.59;5052314;28;20064;-80
2023/07/14 07:41:26;;;;;;;8.32;6.50;;;;;;;20.85;63.21;99896.59;5040524;28;20609;-82
2023/07/14 07:43:53;;;;;;;10.57;6.50;;;;;;;20.88;63.33;99896.34;5046683;28;20128;-81
2023/07/14 07:46:21;;;;;;;12.38;6.38;;;;;;;20.91;63.68;99893.38;5033829;28;20057;-83
2023/07/14 07:48:49;;;;;;;12.30;6.75;;;;;;;20.96;63.72;99900.94;5031999;28;20054;-82
2023/07/14 07:51:16;;;;;;;10.15;6.85;;;;;;;21.01;63.49;99893.28;5034102;28;20045;-83
2023/07/14 07:53:42;;;;;;;11.38;6.93;;;;;;;21.06;63.07;99892.81;5051853;28;20044;-80
2023/07/14 07:56:10;;;;;;;11.60;6.57;;;;;;;21.11;62.87;99895.06;5051525;28;20135;-81
2023/07/14 07:58:37;;;;;;;14.57;6.30;;;;;;;21.14;62.66;99895.59;5051583;28;20057;-79
2023/07/14 08:01:05;;;;;;;9.00;6.60;;;;;;;21.18;62.60;99893.44;5048637;28;20041;-79
2023/07/14 08:03:33;;;;;;;8.30;6.20;;;;;;;21.23;62.39;99885.78;5030631;28;20057;-79
2023/07/14 08:06:03;;;;;;;9.35;5.93;;;;;;;21.29;62.79;99890.53;5030648;28;20103;-80
2023/07/14 08:08:31;;;;;;;9.93;6.35;;;;;;;21.35;62.55;99884.53;5029851;28;20099;-79
2023/07/14 08:10:58;;;;;;;11.38;6.05;;;;;;;21.42;63.06;99878.59;5031822;28;20053;-80
2023/07/14 08:13:25;;;;;;;9.18;5.75;;;;;;;21.51;63.14;99872.28;5050484;28;20045;-79
2023/07/14 08:15:54;;;;;;;9.70;5.70;;;;;;;21.61;63.13;99880.22;5033720;28;20132;-81
2023/07/14 08:18:22;;;;;;;8.43;6.03;;;;;;;21.72;62.71;99885.34;5051138;28;20053;-80
2023/07/14 08:20:49;;;;;;;10.40;6.13;;;;;;;21.84;61.83;99883.25;5051492;28;20044;-81
2023/07/14 08:23:18;;;;;;;12.23;6.25;;;;;;;21.93;60.97;99877.94;5035799;28;20497;-80
2023/07/14 08:26:00;;;;;;;8.90;5.80;;;;;;;21.98;61.43;99875.63;5031376;28;20159;-81
2023/07/14 08:28:27;;;;;;;10.02;5.88;;;;;;;22.09;61.76;99880.69;5031283;28;20505;-81
2023/07/14 08:30:59;;;;;;;9.63;5.75;;;;;;;22.16;61.47;99875.53;5031289;28;20140;-81
2023/07/14 08:33:25;;;;;;;8.00;5.85;;;;;;;22.26;61.56;99875.41;5044774;28;20072;-81
2023/07/14 08:35:53;;;;;;;10.27;4.93;;;;;;;22.34;61.50;99870.09;5050951;28;20049;-81
2023/07/14 08:38:21;;;;;;;10.73;5.20;;;;;;;22.44;60.79;99869.97;5050949;28;20079;-80
2023/07/14 08:40:56;;;;;;;8.18;4.93;;;;;;;22.52;61.56;99875.34;5033412;28;20088;-80
2023/07/14 08:43:55;;;;;;;5.90;4.70;;;;;;;22.62;59.26;99872.53;5040247;28;20103;-80
2023/07/14 08:46:38;;;;;;;7.38;4.32;;;;;;;22.71;59.38;99875.25;5284412;22;20052;-80
2023/07/14 08:49:26;;;;;;;12.15;4.53;;;;;;;22.77;59.22;99870.06;5070784;28;20045;-80
2023/07/14 08:51:58;;;;;;;11.20;5.13;;;;;;;22.90;59.87;99874.09;5070848;28;20051;-81
2023/07/14 08:54:30;;;;;;;8.00;4.85;;;;;;;23.01;60.07;99875.63;5070088;28;20052;-80
2023/07/14 08:56:56;;;;;;;12.70;4.72;;;;;;;23.16;60.94;99873.13;5052592;28;20515;-80
2023/07/14 08:59:32;;;;;;;7.10;5.30;;;;;;;23.29;59.81;99878.00;5070924;28;20045;-80
2023/07/14 09:02:00;;;;;;;5.47;4.50;;;;;;;23.46;59.51;99875.31;5070766;28;20568;-81
2023/07/14 09:04:35;;;;;;;7.65;5.07;;;;;;;23.58;60.40;99870.47;5067669;28;20048;-81
2023/07/14 09:07:01;;;;;;;7.95;4.75;;;;;;;23.73;59.27;99868.72;5066632;28;20040;-81
2023/07/14 09:09:34;;;;;;;10.13;4.78;;;;;;;23.85;59.71;99863.00;5052824;28;20048;-81
2023/07/14 09:12:16;;;;;;;8.20;3.90;;;;;;;23.97;57.79;99856.25;5052977;28;20044;-80
2023/07/14 09:15:00;;;;;;;7.40;4.07;;;;;;;24.12;56.93;99860.94;5057996;28;20076;-81
2023/07/14 09:18:14;;;;;;;6.22;3.85;;;;;;;24.26;57.47;99864.75;5050395;28;20049;-81
2023/07/14 09:20:59;;;;;;;6.00;3.72;;;;;;;24.47;57.62;99850.69;5044215;28;20049;-80
2023/07/14 09:23:39;;;;;;;6.68;3.88;;;;;;;24.60;55.84;99859.00;5057358;28;20063;-81
2023/07/14 09:26:11;;;;;;;5.13;3.78;;;;;;;24.68;55.66;99851.91;5070302;28;20049;-81
2023/07/14 09:28:44;;;;;;;5.30;3.55;;;;;;;24.71;54.32;99846.19;5070510;28;20193;-81
2023/07/14 09:31:39;;;;;;;8.02;3.92;;;;;;;24.72;55.70;99847.84;5054670;28;20125;-81
2023/07/14 09:34:20;;;;;;;4.90;3.38;;;;;;;24.77;54.52;99840.06;5064472;28;20079;-82
2023/07/14 09:36:47;;;;;;;6.20;3.40;;;;;;;24.85;55.11;99852.66;5036907;28;20063;-81
2023/07/14 09:39:41;;;;;;;4.07;3.20;;;;;;;24.85;53.65;99847.28;5054490;28;20049;-81
2023/07/14 09:42:38;;;;;;;4.15;2.80;;;;;;;24.87;54.02;99849.78;5054297;28;20084;-81
2023/07/14 09:45:14;;;;;;;4.60;2.70;;;;;;;24.92;51.89;99842.00;5069036;28;20579;-81
2023/07/14 09:47:43;;;;;;;3.83;2.45;;;;;;;24.94;52.65;99842.69;5073965;28;20135;-81
2023/07/14 09:50:17;;;;;;;8.55;3.17;;;;;;;24.90;51.27;99841.34;5074556;28;20045;-81
2023/07/14 09:52:55;;;;;;;5.38;3.00;;;;;;;24.87;50.89;99833.63;5074186;28;20488;-81
2023/07/14 09:55:24;;;;;;;3.17;2.42;;;;;;;24.92;52.60;99836.63;5059555;28;20045;-80
2023/07/14 09:57:54;;;;;;;4.22;3.08;;;;;;;24.91;53.03;99835.78;5053978;28;20049;-80
2023/07/14 10:00:40;;;;;;;4.75;2.65;;;;;;;24.96;51.18;99828.00;5054230;28;20535;-80
2023/07/14 10:03:11;;;;;;;6.50;2.80;;;;;;;25.02;50.91;99831.84;5054166;28;20107;-80
2023/07/14 10:05:49;;;;;;;4.13;2.55;;;;;;;25.03;50.93;99822.75;5067306;28;20052;-80
2023/07/14 10:08:28;;;;;;;4.85;2.60;;;;;;;25.04;50.52;99829.78;5056143;28;20060;-80
2023/07/14 10:10:57;;;;;;;4.60;2.50;;;;;;;25.06;50.95;99822.38;5074051;28;20052;-80
2023/07/14 10:13:27;;;;;;;2.80;2.28;;;;;;;25.06;49.91;99822.38;5073797;28;20075;-80
2023/07/14 10:16:04;;;;;;;4.50;2.35;;;;;;;25.01;49.41;99827.47;5042605;28;20045;-80
2023/07/14 10:18:30;;;;;;;3.20;2.38;;;;;;;25.03;50.20;99811.97;5053877;28;20064;-80
2023/07/14 10:21:01;;;;;;;2.03;1.67;;;;;;;25.03;50.77;99817.34;5053619;28;20505;-80
2023/07/14 10:23:28;;;;;;;2.47;2.00;;;;;;;25.07;50.39;99815.13;5053743;28;20091;-80
2023/07/14 10:25:55;;;;;;;4.63;2.20;;;;;;;25.11;50.34;99814.59;5063504;28;20075;-80
2023/07/14 10:28:27;;;;;;;10.20;2.72;;;;;;;25.14;49.60;99810.69;5058863;28;20072;-80
2023/07/14 10:31:36;;;;;;;3.92;2.10;;;;;;;25.14;49.18;99802.63;5071356;28;20059;-81
2023/07/14 10:34:21;;;;;;;2.20;1.88;;;;;;;25.21;50.51;99803.56;5029308;28;20083;-79
2023/07/14 10:36:53;;;;;;;2.83;1.95;;;;;;;25.29;49.27;99808.03;5040487;28;20099;-80
2023/07/14 10:39:28;;;;;;;3.65;2.03;;;;;;;25.34;48.04;99802.94;5053689;28;20095;-80
2023/07/14 10:41:56;;;;;;;3.15;1.88;;;;;;;25.43;48.26;99797.44;5053404;28;20053;-80
2023/07/14 10:44:32;;;;;;;1.95;1.60;;;;;;;25.47;48.48;99790.69;5053294;28;20057;-80
2023/07/14 10:47:07;;;;;;;3.03;2.10;;;;;;;25.59;48.25;99785.69;5053288;28;20041;-80
2023/07/14 10:49:42;;;;;;;2.97;2.10;;;;;;;25.76;49.93;99792.56;5053225;28;20045;-80
2023/07/14 10:52:23;;;;;;;3.92;1.92;;;;;;;26.04;49.17;99787.53;5052979;28;20132;-80
2023/07/14 10:55:01;;;;;;;2.10;1.63;;;;;;;26.45;49.98;99783.44;5052854;28;20493;-80
2023/07/14 10:57:43;;;;;;;2.65;2.20;;;;;;;26.84;49.20;99775.91;5053901;28;20045;-80
2023/07/14 11:00:19;;;;;;;3.47;2.17;;;;;;;27.19;47.53;99782.25;5065701;28;20080;-80
2023/07/14 11:02:58;;;;;;;3.13;1.92;;;;;;;27.41;46.16;99779.50;5055205;28;20092;-80
2023/07/14 11:05:26;;;;;;;3.10;1.85;;;;;;;27.52;45.76;99774.56;5072817;28;20056;-80
2023/07/14 11:07:53;;;;;;;3.42;2.00;;;;;;;27.49;45.37;99772.25;5072547;28;20477;-80
2023/07/14 11:10:29;;;;;;;3.08;1.98;;;;;;;27.45;45.37;99763.72;5062023;28;20073;-80
2023/07/14 11:13:37;;;;;;;6.00;2.30;;;;;;;27.49;45.69;99769.53;5052599;28;20091;-81
2023/07/14 11:16:11;;;;;;;3.78;1.85;;;;;;;27.74;45.14;99766.38;5002679;28;20049;-80
2023/07/14 11:18:47;;;;;;;2.45;1.60;;;;;;;27.95;44.53;99760.88;5052330;28;20053;-81
2023/07/14 11:21:35;;;;;;;3.08;2.10;;;;;;;28.15;45.70;99756.56;5067751;28;20045;-81
2023/07/14 11:24:17;;;;;;;4.55;1.85;;;;;;;28.37;44.80;99751.03;5072688;28;20080;-80
2023/07/14 11:27:04;;;;;;;2.65;1.80;;;;;;;28.62;44.60;99745.84;5072088;28;20052;-81
2023/07/14 11:29:42;;;;;;;2.13;1.45;;;;;;;28.85;43.53;99744.56;5072463;28;20148;-80
2023/07/14 11:32:17;;;;;;;2.90;1.75;;;;;;;28.94;42.05;99729.84;5052080;28;20549;-80
2023/07/14 11:35:00;;;;;;;2.25;1.80;;;;;;;28.96;42.36;99733.16;5034572;28;20089;-80
2023/07/14 11:37:38;;;;;;;3.47;2.00;;;;;;;28.90;41.98;99725.03;5052024;28;20068;-80
2023/07/14 11:40:19;;;;;;;3.22;2.17;;;;;;;28.77;41.41;99728.56;5052048;28;20048;-80
2023/07/14 11:42:58;;;;;;;3.50;1.50;;;;;;;28.56;41.92;99723.13;5052124;28;20053;-80
2023/07/14 11:45:29;;;;;;;2.00;1.60;;;;;;;28.41;41.55;99726.03;5051876;28;20060;-80
2023/07/14 11:47:58;;;;;;;3.00;1.67;;;;;;;28.25;41.21;99734.53;5051863;28;20118;-80